sensor_id;sensor_type;location;lat;lon;timestamp;P1;durP1;ratioP1;P2;durP2;ratioP2
53313;SDS011;39202;51.468;7.146;2023-07-24T00:03:55;0.80;;;0.80;;
53313;SDS011;39202;51.468;7.146;2023-07-24T00:09:00;0.75;;;0.75;;
53313;SDS011;39202;51.468;7.146;2023-07-24T00:14:02;0.60;;;0.60;;
53313;SDS011;39202;51.468;7.146;2023-07-24T00:19:04;0.80;;;0.80;;
53313;SDS011;39202;51.468;7.146;2023-07-24T00:24:07;0.70;;;0.70;;
53313;SDS011;39202;51.468;7.146;2023-07-24T00:29:08;0.57;;;0.57;;
53313;SDS011;39202;51.468;7.146;2023-07-24T00:34:10;0.63;;;0.63;;
53313;SDS011;39202;51.468;7.146;2023-07-24T00:44:18;0.60;;;0.60;;
53313;SDS011;39202;51.468;7.146;2023-07-24T00:49:20;0.70;;;0.70;;
53313;SDS011;39202;51.468;7.146;2023-07-24T00:54:22;0.70;;;0.70;;
53313;SDS011;39202;51.468;7.146;2023-07-24T00:59:26;0.80;;;0.80;;
53313;SDS011;39202;51.468;7.146;2023-07-24T01:04:28;0.70;;;0.70;;
53313;SDS011;39202;51.468;7.146;2023-07-24T01:09:30;0.70;;;0.70;;
53313;SDS011;39202;51.468;7.146;2023-07-24T01:14:36;0.63;;;0.63;;
53313;SDS011;39202;51.468;7.146;2023-07-24T01:19:46;0.60;;;0.60;;
53313;SDS011;39202;51.468;7.146;2023-07-24T01:24:52;0.80;;;0.80;;
53313;SDS011;39202;51.468;7.146;2023-07-24T01:30:03;0.80;;;0.80;;
53313;SDS011;39202;51.468;7.146;2023-07-24T01:35:06;0.70;;;0.70;;
53313;SDS011;39202;51.468;7.146;2023-07-24T01:40:08;0.63;;;0.63;;
53313;SDS011;39202;51.468;7.146;2023-07-24T01:45:13;0.75;;;0.75;;
53313;SDS011;39202;51.468;7.146;2023-07-24T01:50:15;0.60;;;0.60;;
53313;SDS011;39202;51.468;7.146;2023-07-24T01:55:16;0.80;;;0.80;;
53313;SDS011;39202;51.468;7.146;2023-07-24T02:00:20;0.70;;;0.70;;
53313;SDS011;39202;51.468;7.146;2023-07-24T02:05:21;0.70;;;0.70;;
53313;SDS011;39202;51.468;7.146;2023-07-24T02:10:23;0.63;;;0.63;;
53313;SDS011;39202;51.468;7.146;2023-07-24T02:15:26;0.70;;;0.70;;
53313;SDS011;39202;51.468;7.146;2023-07-24T02:20:28;0.60;;;0.60;;
53313;SDS011;39202;51.468;7.146;2023-07-24T02:25:29;0.60;;;0.60;;
53313;SDS011;39202;51.468;7.146;2023-07-24T02:30:32;0.70;;;0.70;;
53313;SDS011;39202;51.468;7.146;2023-07-24T02:35:38;0.70;;;0.70;;
53313;SDS011;39202;51.468;7.146;2023-07-24T02:40:41;0.63;;;0.63;;
53313;SDS011;39202;51.468;7.146;2023-07-24T02:45:44;0.70;;;0.70;;
53313;SDS011;39202;51.468;7.146;2023-07-24T02:50:47;0.60;;;0.60;;
53313;SDS011;39202;51.468;7.146;2023-07-24T02:55:48;0.60;;;0.60;;
53313;SDS011;39202;51.468;7.146;2023-07-24T03:00:51;0.63;;;0.63;;
53313;SDS011;39202;51.468;7.146;2023-07-24T03:05:53;0.80;;;0.80;;
53313;SDS011;39202;51.468;7.146;2023-07-24T03:10:55;0.50;;;0.50;;
53313;SDS011;39202;51.468;7.146;2023-07-24T03:15:58;0.70;;;0.70;;
53313;SDS011;39202;51.468;7.146;2023-07-24T03:21:00;0.60;;;0.60;;
53313;SDS011;39202;51.468;7.146;2023-07-24T03:26:02;0.70;;;0.70;;
53313;SDS011;39202;51.468;7.146;2023-07-24T03:31:05;0.70;;;0.70;;
53313;SDS011;39202;51.468;7.146;2023-07-24T03:36:06;0.70;;;0.70;;
53313;SDS011;39202;51.468;7.146;2023-07-24T03:41:08;0.60;;;0.60;;
53313;SDS011;39202;51.468;7.146;2023-07-24T03:46:11;0.68;;;0.68;;
53313;SDS011;39202;51.468;7.146;2023-07-24T03:51:13;0.88;;;0.88;;
53313;SDS011;39202;51.468;7.146;2023-07-24T03:56:14;0.73;;;0.70;;
53313;SDS011;39202;51.468;7.146;2023-07-24T04:01:18;0.80;;;0.80;;
53313;SDS011;39202;51.468;7.146;2023-07-24T04:06:19;0.80;;;0.80;;
53313;SDS011;39202;51.468;7.146;2023-07-24T04:11:21;0.60;;;0.60;;
53313;SDS011;39202;51.468;7.146;2023-07-24T04:16:24;0.60;;;0.60;;
53313;SDS011;39202;51.468;7.146;2023-07-24T04:21:26;0.70;;;0.70;;
53313;SDS011;39202;51.468;7.146;2023-07-24T04:26:28;0.60;;;0.60;;
53313;SDS011;39202;51.468;7.146;2023-07-24T04:31:31;0.70;;;0.70;;
53313;SDS011;39202;51.468;7.146;2023-07-24T04:36:32;0.70;;;0.70;;
53313;SDS011;39202;51.468;7.146;2023-07-24T04:41:34;0.60;;;0.55;;
53313;SDS011;39202;51.468;7.146;2023-07-24T04:46:37;0.60;;;0.60;;
53313;SDS011;39202;51.468;7.146;2023-07-24T04:51:39;0.60;;;0.60;;
53313;SDS011;39202;51.468;7.146;2023-07-24T04:56:41;0.80;;;0.80;;
53313;SDS011;39202;51.468;7.146;2023-07-24T05:01:44;0.60;;;0.60;;
53313;SDS011;39202;51.468;7.146;2023-07-24T05:06:45;0.75;;;0.75;;
53313;SDS011;39202;51.468;7.146;2023-07-24T05:11:47;0.60;;;0.60;;
53313;SDS011;39202;51.468;7.146;2023-07-24T05:16:50;0.80;;;0.80;;
53313;SDS011;39202;51.468;7.146;2023-07-24T05:21:52;0.80;;;0.80;;
53313;SDS011;39202;51.468;7.146;2023-07-24T05:26:54;0.70;;;0.70;;
53313;SDS011;39202;51.468;7.146;2023-07-24T05:31:57;0.70;;;0.70;;
53313;SDS011;39202;51.468;7.146;2023-07-24T05:36:59;0.70;;;0.70;;
53313;SDS011;39202;51.468;7.146;2023-07-24T05:42:00;0.60;;;0.60;;
53313;SDS011;39202;51.468;7.146;2023-07-24T05:47:04;0.70;;;0.70;;
53313;SDS011;39202;51.468;7.146;2023-07-24T05:52:06;0.77;;;0.77;;
53313;SDS011;39202;51.468;7.146;2023-07-24T05:57:08;0.70;;;0.70;;
53313;SDS011;39202;51.468;7.146;2023-07-24T06:02:11;0.57;;;0.57;;
53313;SDS011;39202;51.468;7.146;2023-07-24T06:07:13;0.70;;;0.70;;
53313;SDS011;39202;51.468;7.146;2023-07-24T06:12:14;0.80;;;0.80;;
53313;SDS011;39202;51.468;7.146;2023-07-24T06:17:18;0.60;;;0.60;;
53313;SDS011;39202;51.468;7.146;2023-07-24T06:22:19;0.70;;;0.70;;
53313;SDS011;39202;51.468;7.146;2023-07-24T06:27:21;0.70;;;0.70;;
53313;SDS011;39202;51.468;7.146;2023-07-24T06:32:24;0.70;;;0.70;;
53313;SDS011;39202;51.468;7.146;2023-07-24T06:42:34;0.80;;;0.80;;
53313;SDS011;39202;51.468;7.146;2023-07-24T06:47:37;0.70;;;0.70;;
53313;SDS011;39202;51.468;7.146;2023-07-24T06:52:39;0.70;;;0.70;;
53313;SDS011;39202;51.468;7.146;2023-07-24T06:57:41;0.68;;;0.68;;
53313;SDS011;39202;51.468;7.146;2023-07-24T07:02:44;0.80;;;0.80;;
53313;SDS011;39202;51.468;7.146;2023-07-24T07:07:46;0.70;;;0.70;;
53313;SDS011;39202;51.468;7.146;2023-07-24T07:12:48;0.70;;;0.70;;
53313;SDS011;39202;51.468;7.146;2023-07-24T07:17:51;0.80;;;0.80;;
53313;SDS011;39202;51.468;7.146;2023-07-24T07:22:53;0.70;;;0.70;;
53313;SDS011;39202;51.468;7.146;2023-07-24T07:27:55;0.60;;;0.60;;
53313;SDS011;39202;51.468;7.146;2023-07-24T07:32:58;0.75;;;0.75;;
53313;SDS011;39202;51.468;7.146;2023-07-24T07:37:59;0.77;;;0.77;;
53313;SDS011;39202;51.468;7.146;2023-07-24T07:43:02;0.80;;;0.80;;
53313;SDS011;39202;51.468;7.146;2023-07-24T07:48:05;0.90;;;0.90;;
53313;SDS011;39202;51.468;7.146;2023-07-24T07:53:07;0.70;;;0.70;;
53313;SDS011;39202;51.468;7.146;2023-07-24T07:58:08;0.77;;;0.77;;
53313;SDS011;39202;51.468;7.146;2023-07-24T08:03:12;0.73;;;0.73;;
53313;SDS011;39202;51.468;7.146;2023-07-24T08:08:13;0.80;;;0.80;;
53313;SDS011;39202;51.468;7.146;2023-07-24T08:13:15;1.00;;;1.00;;
53313;SDS011;39202;51.468;7.146;2023-07-24T08:18:18;0.90;;;0.90;;
53313;SDS011;39202;51.468;7.146;2023-07-24T08:23:20;0.90;;;0.90;;
53313;SDS011;39202;51.468;7.146;2023-07-24T08:28:22;0.98;;;0.98;;
53313;SDS011;39202;51.468;7.146;2023-07-24T08:33:25;0.90;;;0.90;;
53313;SDS011;39202;51.468;7.146;2023-07-24T08:38:26;0.88;;;0.88;;
53313;SDS011;39202;51.468;7.146;2023-07-24T08:43:29;0.95;;;0.95;;
53313;SDS011;39202;51.468;7.146;2023-07-24T08:48:33;1.00;;;1.00;;
53313;SDS011;39202;51.468;7.146;2023-07-24T08:53:37;0.70;;;0.70;;
53313;SDS011;39202;51.468;7.146;2023-07-24T08:58:40;0.80;;;0.80;;
53313;SDS011;39202;51.468;7.146;2023-07-24T09:03:43;0.80;;;0.80;;
53313;SDS011;39202;51.468;7.146;2023-07-24T09:08:45;0.82;;;0.82;;
53313;SDS011;39202;51.468;7.146;2023-07-24T09:13:46;0.98;;;0.98;;
53313;SDS011;39202;51.468;7.146;2023-07-24T09:18:51;1.10;;;1.10;;
53313;SDS011;39202;51.468;7.146;2023-07-24T09:23:53;1.00;;;1.00;;
53313;SDS011;39202;51.468;7.146;2023-07-24T09:28:55;0.82;;;0.82;;
53313;SDS011;39202;51.468;7.146;2023-07-24T09:33:58;0.95;;;0.95;;
53313;SDS011;39202;51.468;7.146;2023-07-24T09:39:00;0.90;;;0.90;;
53313;SDS011;39202;51.468;7.146;2023-07-24T09:44:03;1.00;;;1.00;;
53313;SDS011;39202;51.468;7.146;2023-07-24T09:49:06;0.93;;;0.93;;
53313;SDS011;39202;51.468;7.146;2023-07-24T09:54:09;1.10;;;1.10;;
53313;SDS011;39202;51.468;7.146;2023-07-24T09:59:16;1.10;;;1.10;;
53313;SDS011;39202;51.468;7.146;2023-07-24T10:04:19;1.02;;;1.02;;
53313;SDS011;39202;51.468;7.146;2023-07-24T10:09:24;1.10;;;1.10;;
53313;SDS011;39202;51.468;7.146;2023-07-24T10:14:26;1.23;;;1.20;;
53313;SDS011;39202;51.468;7.146;2023-07-24T10:19:36;1.20;;;1.20;;
53313;SDS011;39202;51.468;7.146;2023-07-24T10:24:40;1.10;;;1.10;;
53313;SDS011;39202;51.468;7.146;2023-07-24T10:29:42;1.30;;;1.23;;
53313;SDS011;39202;51.468;7.146;2023-07-24T10:34:56;1.23;;;1.13;;
53313;SDS011;39202;51.468;7.146;2023-07-24T10:40:00;1.20;;;0.95;;
53313;SDS011;39202;51.468;7.146;2023-07-24T10:45:04;1.10;;;1.10;;
53313;SDS011;39202;51.468;7.146;2023-07-24T10:50:08;1.17;;;1.17;;
53313;SDS011;39202;51.468;7.146;2023-07-24T10:55:10;1.20;;;1.20;;
53313;SDS011;39202;51.468;7.146;2023-07-24T11:00:12;1.00;;;1.00;;
53313;SDS011;39202;51.468;7.146;2023-07-24T11:05:16;1.30;;;1.20;;
53313;SDS011;39202;51.468;7.146;2023-07-24T11:10:20;1.20;;;1.20;;
53313;SDS011;39202;51.468;7.146;2023-07-24T11:15:23;1.10;;;1.10;;
53313;SDS011;39202;51.468;7.146;2023-07-24T11:20:28;1.10;;;1.10;;
53313;SDS011;39202;51.468;7.146;2023-07-24T11:25:30;1.00;;;1.00;;
53313;SDS011;39202;51.468;7.146;2023-07-24T11:30:32;1.20;;;1.20;;
53313;SDS011;39202;51.468;7.146;2023-07-24T11:35:36;1.00;;;1.00;;
53313;SDS011;39202;51.468;7.146;2023-07-24T11:40:39;1.13;;;1.13;;
53313;SDS011;39202;51.468;7.146;2023-07-24T11:45:42;1.10;;;1.10;;
53313;SDS011;39202;51.468;7.146;2023-07-24T11:50:48;1.35;;;1.30;;
53313;SDS011;39202;51.468;7.146;2023-07-24T11:55:51;1.10;;;1.10;;
53313;SDS011;39202;51.468;7.146;2023-07-24T12:00:54;1.48;;;1.42;;
53313;SDS011;39202;51.468;7.146;2023-07-24T12:05:59;1.17;;;1.17;;
53313;SDS011;39202;51.468;7.146;2023-07-24T12:11:01;1.20;;;1.20;;
53313;SDS011;39202;51.468;7.146;2023-07-24T12:16:03;1.00;;;1.00;;
53313;SDS011;39202;51.468;7.146;2023-07-24T12:21:07;1.23;;;1.23;;
53313;SDS011;39202;51.468;7.146;2023-07-24T12:26:09;1.20;;;1.20;;
53313;SDS011;39202;51.468;7.146;2023-07-24T12:31:10;1.17;;;1.17;;
53313;SDS011;39202;51.468;7.146;2023-07-24T12:36:13;1.45;;;1.40;;
53313;SDS011;39202;51.468;7.146;2023-07-24T12:41:15;1.33;;;1.20;;
53313;SDS011;39202;51.468;7.146;2023-07-24T12:46:17;1.17;;;1.17;;
53313;SDS011;39202;51.468;7.146;2023-07-24T12:51:20;1.30;;;1.20;;
53313;SDS011;39202;51.468;7.146;2023-07-24T12:56:21;1.40;;;1.30;;
53313;SDS011;39202;51.468;7.146;2023-07-24T13:01:23;1.30;;;1.20;;
53313;SDS011;39202;51.468;7.146;2023-07-24T13:06:29;1.40;;;1.30;;
53313;SDS011;39202;51.468;7.146;2023-07-24T13:11:31;1.27;;;1.27;;
53313;SDS011;39202;51.468;7.146;2023-07-24T13:16:33;1.30;;;1.20;;
53313;SDS011;39202;51.468;7.146;2023-07-24T13:21:36;1.17;;;1.13;;
53313;SDS011;39202;51.468;7.146;2023-07-24T13:26:39;1.20;;;1.20;;
53313;SDS011;39202;51.468;7.146;2023-07-24T13:31:40;1.35;;;1.35;;
53313;SDS011;39202;51.468;7.146;2023-07-24T13:36:44;1.20;;;1.20;;
53313;SDS011;39202;51.468;7.146;2023-07-24T13:41:45;1.30;;;1.20;;
53313;SDS011;39202;51.468;7.146;2023-07-24T13:46:47;1.45;;;1.35;;
53313;SDS011;39202;51.468;7.146;2023-07-24T13:51:50;1.17;;;1.17;;
53313;SDS011;39202;51.468;7.146;2023-07-24T13:56:52;1.13;;;1.13;;
53313;SDS011;39202;51.468;7.146;2023-07-24T14:01:54;1.30;;;1.23;;
53313;SDS011;39202;51.468;7.146;2023-07-24T14:06:57;1.20;;;1.10;;
53313;SDS011;39202;51.468;7.146;2023-07-24T14:11:59;1.40;;;1.30;;
53313;SDS011;39202;51.468;7.146;2023-07-24T14:17:00;1.20;;;1.10;;
53313;SDS011;39202;51.468;7.146;2023-07-24T14:22:04;1.00;;;1.00;;
53313;SDS011;39202;51.468;7.146;2023-07-24T14:27:06;1.00;;;1.00;;
53313;SDS011;39202;51.468;7.146;2023-07-24T14:32:08;1.50;;;1.20;;
53313;SDS011;39202;51.468;7.146;2023-07-24T14:37:11;1.30;;;1.20;;
53313;SDS011;39202;51.468;7.146;2023-07-24T14:42:13;1.00;;;1.00;;
53313;SDS011;39202;51.468;7.146;2023-07-24T14:47:15;1.15;;;1.15;;
53313;SDS011;39202;51.468;7.146;2023-07-24T14:52:18;1.05;;;1.05;;
53313;SDS011;39202;51.468;7.146;2023-07-24T14:57:19;1.02;;;1.02;;
53313;SDS011;39202;51.468;7.146;2023-07-24T15:02:21;1.77;;;1.10;;
53313;SDS011;39202;51.468;7.146;2023-07-24T15:07:24;1.25;;;1.15;;
53313;SDS011;39202;51.468;7.146;2023-07-24T15:12:26;1.00;;;1.00;;
53313;SDS011;39202;51.468;7.146;2023-07-24T15:17:28;1.10;;;1.10;;
53313;SDS011;39202;51.468;7.146;2023-07-24T15:22:31;1.00;;;1.00;;
53313;SDS011;39202;51.468;7.146;2023-07-24T15:27:32;1.23;;;1.20;;
53313;SDS011;39202;51.468;7.146;2023-07-24T15:32:34;1.10;;;1.10;;
53313;SDS011;39202;51.468;7.146;2023-07-24T15:37:37;1.10;;;1.10;;
53313;SDS011;39202;51.468;7.146;2023-07-24T15:42:39;1.17;;;1.17;;
53313;SDS011;39202;51.468;7.146;2023-07-24T15:47:40;1.08;;;1.05;;
53313;SDS011;39202;51.468;7.146;2023-07-24T15:52:43;1.20;;;1.20;;
53313;SDS011;39202;51.468;7.146;2023-07-24T15:57:45;0.90;;;0.90;;
53313;SDS011;39202;51.468;7.146;2023-07-24T16:02:47;1.20;;;1.20;;
53313;SDS011;39202;51.468;7.146;2023-07-24T16:07:50;1.00;;;1.00;;
53313;SDS011;39202;51.468;7.146;2023-07-24T16:12:52;1.10;;;1.10;;
53313;SDS011;39202;51.468;7.146;2023-07-24T16:17:53;1.00;;;1.00;;
53313;SDS011;39202;51.468;7.146;2023-07-24T16:22:56;1.30;;;1.20;;
53313;SDS011;39202;51.468;7.146;2023-07-24T16:27:58;1.35;;;1.25;;
53313;SDS011;39202;51.468;7.146;2023-07-24T16:33:00;1.08;;;1.08;;
53313;SDS011;39202;51.468;7.146;2023-07-24T16:38:03;1.10;;;1.10;;
53313;SDS011;39202;51.468;7.146;2023-07-24T16:43:05;1.30;;;1.20;;
53313;SDS011;39202;51.468;7.146;2023-07-24T16:48:07;1.10;;;1.10;;
53313;SDS011;39202;51.468;7.146;2023-07-24T16:53:10;1.10;;;1.00;;
53313;SDS011;39202;51.468;7.146;2023-07-24T16:58:11;1.15;;;1.15;;
53313;SDS011;39202;51.468;7.146;2023-07-24T17:03:13;1.00;;;1.00;;
53313;SDS011;39202;51.468;7.146;2023-07-24T17:08:16;0.98;;;0.98;;
53313;SDS011;39202;51.468;7.146;2023-07-24T17:13:18;1.17;;;1.17;;
53313;SDS011;39202;51.468;7.146;2023-07-24T17:18:20;0.95;;;0.95;;
53313;SDS011;39202;51.468;7.146;2023-07-24T17:23:23;1.35;;;1.35;;
53313;SDS011;39202;51.468;7.146;2023-07-24T17:28:25;1.00;;;1.00;;
53313;SDS011;39202;51.468;7.146;2023-07-24T17:33:26;1.20;;;1.20;;
53313;SDS011;39202;51.468;7.146;2023-07-24T17:38:29;1.15;;;1.00;;
53313;SDS011;39202;51.468;7.146;2023-07-24T17:43:31;1.02;;;1.02;;
53313;SDS011;39202;51.468;7.146;2023-07-24T17:48:33;1.27;;;1.13;;
53313;SDS011;39202;51.468;7.146;2023-07-24T17:53:37;1.20;;;1.20;;
53313;SDS011;39202;51.468;7.146;2023-07-24T17:58:39;1.42;;;1.33;;
53313;SDS011;39202;51.468;7.146;2023-07-24T18:03:41;2.30;;;1.20;;
53313;SDS011;39202;51.468;7.146;2023-07-24T18:08:44;1.05;;;1.05;;
53313;SDS011;39202;51.468;7.146;2023-07-24T18:13:46;1.30;;;1.20;;
53313;SDS011;39202;51.468;7.146;2023-07-24T18:18:47;1.02;;;1.02;;
53313;SDS011;39202;51.468;7.146;2023-07-24T18:23:51;1.20;;;1.20;;
53313;SDS011;39202;51.468;7.146;2023-07-24T18:28:52;1.10;;;1.10;;
53313;SDS011;39202;51.468;7.146;2023-07-24T18:33:54;1.30;;;1.20;;
53313;SDS011;39202;51.468;7.146;2023-07-24T18:38:57;1.08;;;1.00;;
53313;SDS011;39202;51.468;7.146;2023-07-24T18:43:59;2.50;;;1.30;;
53313;SDS011;39202;51.468;7.146;2023-07-24T18:49:01;2.00;;;1.33;;
53313;SDS011;39202;51.468;7.146;2023-07-24T18:54:04;0.98;;;0.98;;
53313;SDS011;39202;51.468;7.146;2023-07-24T18:59:06;1.15;;;1.10;;
53313;SDS011;39202;51.468;7.146;2023-07-24T19:04:07;1.10;;;1.10;;
53313;SDS011;39202;51.468;7.146;2023-07-24T19:09:10;1.20;;;1.20;;
53313;SDS011;39202;51.468;7.146;2023-07-24T19:14:13;1.10;;;1.10;;
53313;SDS011;39202;51.468;7.146;2023-07-24T19:19:15;1.45;;;1.35;;
53313;SDS011;39202;51.468;7.146;2023-07-24T19:24:18;1.33;;;1.20;;
53313;SDS011;39202;51.468;7.146;2023-07-24T19:29:19;1.00;;;1.00;;
53313;SDS011;39202;51.468;7.146;2023-07-24T19:34:21;1.10;;;1.10;;
53313;SDS011;39202;51.468;7.146;2023-07-24T19:39:24;1.35;;;1.25;;
53313;SDS011;39202;51.468;7.146;2023-07-24T19:44:26;1.20;;;1.20;;
53313;SDS011;39202;51.468;7.146;2023-07-24T19:49:28;0.98;;;0.98;;
53313;SDS011;39202;51.468;7.146;2023-07-24T19:54:31;1.08;;;1.08;;
53313;SDS011;39202;51.468;7.146;2023-07-24T19:59:33;1.30;;;1.30;;
53313;SDS011;39202;51.468;7.146;2023-07-24T20:04:35;1.20;;;1.20;;
53313;SDS011;39202;51.468;7.146;2023-07-24T20:09:38;1.10;;;1.10;;
53313;SDS011;39202;51.468;7.146;2023-07-24T20:14:40;1.15;;;1.15;;
53313;SDS011;39202;51.468;7.146;2023-07-24T20:19:41;1.00;;;1.00;;
53313;SDS011;39202;51.468;7.146;2023-07-24T20:24:44;1.23;;;1.23;;
53313;SDS011;39202;51.468;7.146;2023-07-24T20:29:46;1.17;;;1.17;;
53313;SDS011;39202;51.468;7.146;2023-07-24T20:34:48;1.35;;;1.25;;
53313;SDS011;39202;51.468;7.146;2023-07-24T20:39:51;1.17;;;1.17;;
53313;SDS011;39202;51.468;7.146;2023-07-24T20:44:53;1.10;;;1.10;;
53313;SDS011;39202;51.468;7.146;2023-07-24T20:49:54;1.00;;;1.00;;
53313;SDS011;39202;51.468;7.146;2023-07-24T20:54:59;1.08;;;1.08;;
53313;SDS011;39202;51.468;7.146;2023-07-24T21:00:01;1.55;;;1.30;;
53313;SDS011;39202;51.468;7.146;2023-07-24T21:05:03;1.05;;;1.05;;
53313;SDS011;39202;51.468;7.146;2023-07-24T21:10:06;1.20;;;1.20;;
53313;SDS011;39202;51.468;7.146;2023-07-24T21:15:09;1.10;;;1.10;;
53313;SDS011;39202;51.468;7.146;2023-07-24T21:20:11;1.10;;;1.10;;
53313;SDS011;39202;51.468;7.146;2023-07-24T21:25:15;1.10;;;1.10;;
53313;SDS011;39202;51.468;7.146;2023-07-24T21:30:17;1.20;;;1.20;;
53313;SDS011;39202;51.468;7.146;2023-07-24T21:35:20;1.23;;;1.23;;
53313;SDS011;39202;51.468;7.146;2023-07-24T21:40:23;1.25;;;1.17;;
53313;SDS011;39202;51.468;7.146;2023-07-24T21:45:25;0.90;;;0.90;;
53313;SDS011;39202;51.468;7.146;2023-07-24T21:50:27;1.20;;;1.20;;
53313;SDS011;39202;51.468;7.146;2023-07-24T21:55:30;1.20;;;1.10;;
53313;SDS011;39202;51.468;7.146;2023-07-24T22:00:32;1.40;;;1.30;;
53313;SDS011;39202;51.468;7.146;2023-07-24T22:05:34;1.02;;;1.02;;
53313;SDS011;39202;51.468;7.146;2023-07-24T22:10:37;1.25;;;1.25;;
53313;SDS011;39202;51.468;7.146;2023-07-24T22:15:39;1.00;;;1.00;;
53313;SDS011;39202;51.468;7.146;2023-07-24T22:20:41;1.30;;;1.30;;
53313;SDS011;39202;51.468;7.146;2023-07-24T22:25:44;1.10;;;1.10;;
53313;SDS011;39202;51.468;7.146;2023-07-24T22:30:46;1.02;;;1.02;;
53313;SDS011;39202;51.468;7.146;2023-07-24T22:35:55;1.35;;;1.30;;
53313;SDS011;39202;51.468;7.146;2023-07-24T22:40:59;1.10;;;1.10;;
53313;SDS011;39202;51.468;7.146;2023-07-24T22:46:09;1.20;;;1.20;;
53313;SDS011;39202;51.468;7.146;2023-07-24T22:51:11;1.05;;;1.00;;
53313;SDS011;39202;51.468;7.146;2023-07-24T22:56:14;1.05;;;1.05;;
53313;SDS011;39202;51.468;7.146;2023-07-24T23:01:15;1.08;;;1.08;;
53313;SDS011;39202;51.468;7.146;2023-07-24T23:06:17;1.17;;;1.17;;
53313;SDS011;39202;51.468;7.146;2023-07-24T23:11:20;1.00;;;1.00;;
53313;SDS011;39202;51.468;7.146;2023-07-24T23:16:22;1.10;;;1.10;;
53313;SDS011;39202;51.468;7.146;2023-07-24T23:21:23;1.15;;;1.15;;
53313;SDS011;39202;51.468;7.146;2023-07-24T23:26:27;1.10;;;1.10;;
53313;SDS011;39202;51.468;7.146;2023-07-24T23:31:28;1.20;;;1.20;;
53313;SDS011;39202;51.468;7.146;2023-07-24T23:36:30;1.08;;;1.08;;
53313;SDS011;39202;51.468;7.146;2023-07-24T23:41:34;1.00;;;1.00;;
53313;SDS011;39202;51.468;7.146;2023-07-24T23:46:36;1.20;;;1.20;;
53313;SDS011;39202;51.468;7.146;2023-07-24T23:51:40;1.10;;;1.10;;
53313;SDS011;39202;51.468;7.146;2023-07-24T23:56:43;1.00;;;1.00;;
